Time;durP1;ratioP1;P1;durP2;ratioP2;P2;SDS_P1;SDS_P2;PMS_P1;PMS_P2;Temp;Humidity;BMP_temperature;BMP_pressure;BME280_temperature;BME280_humidity;BME280_pressure;Samples;Min_cycle;Max_cycle;Signal;HPM_P1;HPM_P2
2021/12/31 00:00:52;;;;;;;38.60;18.60;;;3.80;99.90;;;;;;4206437;28;20338;-55
2021/12/31 00:02:53;;;;;;;36.83;19.20;;;3.80;99.90;;;;;;4206827;28;20290;-57
2021/12/31 00:04:56;;;;;;;36.67;19.10;;;3.80;99.90;;;;;;4206123;28;20305;-52
2021/12/31 00:06:58;;;;;;;37.90;18.47;;;3.80;99.90;;;;;;4206587;28;20265;-56
2021/12/31 00:08:59;;;;;;;37.77;19.30;;;3.80;99.90;;;;;;4206231;28;20252;-56
2021/12/31 00:11:01;;;;;;;37.47;19.80;;;3.80;99.90;;;;;;4207077;28;20670;-55
2021/12/31 00:13:02;;;;;;;45.43;21.43;;;3.80;99.90;;;;;;4205584;28;20321;-58
2021/12/31 00:15:04;;;;;;;38.30;19.70;;;3.80;99.90;;;;;;4207344;28;20296;-58
2021/12/31 00:17:07;;;;;;;36.27;20.37;;;3.80;99.90;;;;;;4205064;28;20317;-57
2021/12/31 00:19:08;;;;;;;40.43;19.70;;;3.80;99.90;;;;;;4207090;28;21304;-52
2021/12/31 00:21:09;;;;;;;38.67;19.43;;;3.80;99.90;;;;;;4205413;28;20280;-56
2021/12/31 00:23:13;;;;;;;37.80;19.00;;;3.70;99.90;;;;;;4207163;28;20330;-57
2021/12/31 00:25:14;;;;;;;42.47;20.00;;;3.70;99.90;;;;;;4205714;28;20281;-57
2021/12/31 00:27:16;;;;;;;42.57;20.30;;;3.70;99.90;;;;;;4206962;28;20330;-56
2021/12/31 00:29:17;;;;;;;45.43;23.57;;;3.80;99.90;;;;;;4204549;28;20298;-58
2021/12/31 00:31:18;;;;;;;47.10;23.10;;;3.80;99.90;;;;;;4206479;28;20280;-56
2021/12/31 00:33:20;;;;;;;39.73;20.77;;;3.70;99.90;;;;;;4206350;28;20272;-58
2021/12/31 00:35:22;;;;;;;44.70;23.13;;;3.70;99.90;;;;;;4206059;28;20790;-53
2021/12/31 00:37:30;;;;;;;40.10;22.20;;;3.70;99.90;;;;;;4206484;28;21136;-57
2021/12/31 00:39:31;;;;;;;41.97;21.20;;;3.70;99.90;;;;;;4205719;28;20265;-58
2021/12/31 00:41:32;;;;;;;42.17;22.67;;;3.70;99.90;;;;;;4206955;28;20766;-60
2021/12/31 00:43:33;;;;;;;44.63;23.73;;;3.70;99.90;;;;;;4206219;28;20314;-57
2021/12/31 00:45:37;;;;;;;44.60;23.60;;;3.70;99.90;;;;;;4205825;28;20787;-54
2021/12/31 00:47:38;;;;;;;49.10;25.80;;;3.70;99.90;;;;;;4205674;28;20699;-55
2021/12/31 00:49:39;;;;;;;55.83;27.67;;;3.70;99.90;;;;;;4209195;28;20264;-54
2021/12/31 00:51:41;;;;;;;42.83;21.60;;;3.70;99.90;;;;;;4209384;28;20277;-52
2021/12/31 00:53:42;;;;;;;45.23;23.73;;;3.70;99.90;;;;;;4210314;28;20760;-59
2021/12/31 00:55:43;;;;;;;50.40;25.87;;;3.60;99.90;;;;;;4208858;28;20760;-55
2021/12/31 00:57:44;;;;;;;46.03;23.60;;;3.60;99.90;;;;;;4210283;28;20272;-57
2021/12/31 00:59:46;;;;;;;48.17;23.97;;;3.70;99.90;;;;;;4207009;28;20285;-57
2021/12/31 01:01:47;;;;;;;47.27;22.60;;;3.60;99.90;;;;;;4210058;28;20277;-58
2021/12/31 01:03:49;;;;;;;54.97;22.80;;;3.60;99.90;;;;;;4209210;28;20268;-57
2021/12/31 01:05:50;;;;;;;44.93;22.60;;;3.60;99.90;;;;;;4209180;28;20269;-58
2021/12/31 01:07:51;;;;;;;54.63;24.00;;;3.60;99.90;;;;;;4209389;28;20313;-59
2021/12/31 01:09:54;;;;;;;51.20;24.43;;;3.60;99.90;;;;;;4208694;28;20798;-58
2021/12/31 01:11:57;;;;;;;48.60;21.67;;;3.60;99.90;;;;;;4209746;28;20260;-60
2021/12/31 01:14:02;;;;;;;52.43;24.33;;;3.60;99.90;;;;;;4209154;28;20314;-58
2021/12/31 01:16:05;;;;;;;49.43;22.07;;;3.60;99.90;;;;;;4209615;28;20825;-56
2021/12/31 01:20:08;;;;;;;52.17;24.37;;;3.70;99.90;;;;;;4209577;28;20294;-58
2021/12/31 01:22:09;;;;;;;54.73;26.63;;;3.70;99.90;;;;;;4208482;28;20253;-58
2021/12/31 01:24:11;;;;;;;54.23;26.03;;;3.70;99.90;;;;;;4209358;28;20289;-57
2021/12/31 01:26:13;;;;;;;53.93;22.77;;;3.70;99.90;;;;;;4208553;28;20268;-58
2021/12/31 01:28:14;;;;;;;55.17;24.20;;;3.70;99.90;;;;;;4209644;28;20767;-58
2021/12/31 01:30:16;;;;;;;53.27;24.00;;;3.70;99.90;;;;;;4208172;28;20280;-58
2021/12/31 01:32:17;;;;;;;46.13;21.70;;;3.70;99.90;;;;;;4209705;28;20276;-61
2021/12/31 01:34:22;;;;;;;50.73;21.83;;;3.70;99.90;;;;;;4208069;28;20346;-55
2021/12/31 01:36:23;;;;;;;49.30;20.90;;;3.70;99.90;;;;;;4209561;28;20310;-59
2021/12/31 01:38:25;;;;;;;49.80;21.67;;;3.70;99.90;;;;;;4208629;28;20257;-60
2021/12/31 01:40:27;;;;;;;52.53;22.83;;;3.70;99.90;;;;;;4209147;28;20873;-56
2021/12/31 01:42:32;;;;;;;50.33;21.17;;;3.80;99.90;;;;;;4208774;28;20253;-59
2021/12/31 01:44:37;;;;;;;47.13;21.13;;;3.70;99.90;;;;;;4208484;28;20296;-59
2021/12/31 01:46:53;;;;;;;52.70;22.97;;;3.70;99.90;;;;;;4209113;28;20287;-51
2021/12/31 01:50:58;;;;;;;49.27;22.00;;;3.70;99.90;;;;;;4207511;28;20317;-58
2021/12/31 01:53:00;;;;;;;53.57;22.30;;;3.70;99.90;;;;;;4207260;28;20281;-56
2021/12/31 01:55:03;;;;;;;44.53;22.70;;;3.70;99.90;;;;;;4209318;28;20314;-54
2021/12/31 01:57:09;;;;;;;47.13;22.67;;;3.60;99.90;;;;;;4207908;28;20322;-57
2021/12/31 01:59:11;;;;;;;39.63;20.73;;;3.60;99.90;;;;;;4209384;28;20315;-53
2021/12/31 02:01:12;;;;;;;49.67;22.60;;;3.60;99.90;;;;;;4207776;28;20354;-55
2021/12/31 02:03:14;;;;;;;46.97;23.97;;;3.50;99.90;;;;;;4208788;28;20295;-58
2021/12/31 02:05:15;;;;;;;45.57;23.23;;;3.40;99.90;;;;;;4207814;28;20366;-58
2021/12/31 02:07:16;;;;;;;48.80;24.97;;;3.40;99.90;;;;;;4208818;28;20272;-58
2021/12/31 02:09:17;;;;;;;52.53;24.67;;;3.40;99.90;;;;;;4207963;28;20280;-57
2021/12/31 02:11:20;;;;;;;51.97;25.63;;;3.40;99.90;;;;;;4209081;28;20835;-58
2021/12/31 02:13:21;;;;;;;52.57;27.67;;;3.40;99.90;;;;;;4207365;28;20272;-57
2021/12/31 02:15:25;;;;;;;50.70;25.80;;;3.40;99.90;;;;;;4208971;28;20265;-54
2021/12/31 02:17:26;;;;;;;51.30;27.33;;;3.30;99.90;;;;;;4207497;28;20639;-61
2021/12/31 02:19:28;;;;;;;47.10;24.43;;;3.30;99.90;;;;;;4208655;28;20314;-58
2021/12/31 02:21:29;;;;;;;45.60;25.77;;;3.30;99.90;;;;;;4207645;28;20321;-52
2021/12/31 02:23:39;;;;;;;48.37;24.13;;;3.30;99.90;;;;;;4208030;28;20277;-54
2021/12/31 02:25:40;;;;;;;50.57;25.50;;;3.20;99.90;;;;;;4208069;28;20300;-53
2021/12/31 02:27:41;;;;;;;51.87;25.27;;;3.20;99.90;;;;;;4207571;28;20338;-54
2021/12/31 02:29:42;;;;;;;47.70;25.27;;;3.20;99.90;;;;;;4206849;28;20314;-53
2021/12/31 02:31:44;;;;;;;46.73;25.50;;;3.20;99.90;;;;;;4207547;28;20257;-60
2021/12/31 02:33:45;;;;;;;43.03;22.97;;;3.20;99.90;;;;;;4208737;28;20277;-57
2021/12/31 02:35:46;;;;;;;44.00;23.93;;;3.20;99.90;;;;;;4207526;28;20269;-55
2021/12/31 02:37:47;;;;;;;48.80;24.37;;;3.20;99.90;;;;;;4208888;28;20269;-54
2021/12/31 02:39:48;;;;;;;45.87;25.13;;;3.20;99.90;;;;;;4207478;28;20330;-57
2021/12/31 02:41:49;;;;;;;51.07;26.97;;;3.20;99.90;;;;;;4208267;28;20265;-56
2021/12/31 02:43:51;;;;;;;45.23;23.73;;;3.20;99.90;;;;;;4207163;28;20378;-55
2021/12/31 02:45:52;;;;;;;42.43;23.47;;;3.10;99.90;;;;;;4208388;28;20357;-51
2021/12/31 02:47:53;;;;;;;46.03;24.60;;;3.10;99.90;;;;;;4207126;28;20321;-53
2021/12/31 02:49:54;;;;;;;49.63;26.70;;;3.10;99.90;;;;;;4208116;28;20269;-55
2021/12/31 02:52:02;;;;;;;47.00;25.33;;;3.10;99.90;;;;;;4207173;28;20248;-59
2021/12/31 02:54:09;;;;;;;53.40;26.80;;;3.10;99.90;;;;;;4206453;28;20397;-55
2021/12/31 02:56:12;;;;;;;48.50;26.57;;;3.00;99.90;;;;;;4206897;28;20265;-54
2021/12/31 02:58:13;;;;;;;51.40;24.97;;;3.10;99.90;;;;;;4207601;28;20671;-55
2021/12/31 03:00:15;;;;;;;48.00;24.97;;;3.00;99.90;;;;;;4207524;28;20314;-55
2021/12/31 03:02:23;;;;;;;50.80;25.00;;;3.00;99.90;;;;;;4207262;28;20264;-56
2021/12/31 03:04:25;;;;;;;51.27;24.47;;;3.00;99.90;;;;;;4207940;28;20580;-55
2021/12/31 03:06:28;;;;;;;48.57;25.00;;;3.00;99.90;;;;;;4205719;28;20610;-57
2021/12/31 03:08:32;;;;;;;50.40;25.70;;;3.00;99.90;;;;;;4207948;28;20264;-55
2021/12/31 03:10:34;;;;;;;51.53;25.73;;;3.00;99.90;;;;;;4206678;28;20269;-57
2021/12/31 03:12:39;;;;;;;48.37;24.80;;;3.00;99.90;;;;;;4207585;28;20261;-57
2021/12/31 03:14:43;;;;;;;47.63;23.83;;;3.00;99.90;;;;;;4206964;28;20261;-59
2021/12/31 03:16:45;;;;;;;44.23;23.97;;;3.00;99.90;;;;;;4208519;28;20252;-61
2021/12/31 03:18:48;;;;;;;46.33;24.80;;;3.00;99.90;;;;;;4206755;28;20737;-58
2021/12/31 03:21:04;;;;;;;50.10;25.37;;;3.00;99.90;;;;;;4207963;28;20741;-53
2021/12/31 03:23:05;;;;;;;51.23;24.23;;;3.00;99.90;;;;;;4206522;28;20269;-57
2021/12/31 03:25:08;;;;;;;45.13;22.43;;;3.10;99.90;;;;;;4207727;28;20296;-58
2021/12/31 03:27:09;;;;;;;46.30;24.47;;;3.00;99.90;;;;;;4206725;28;20269;-57
2021/12/31 03:29:10;;;;;;;49.03;25.27;;;3.00;99.90;;;;;;4207770;28;20815;-58
2021/12/31 03:31:12;;;;;;;49.63;24.33;;;3.10;99.90;;;;;;4206567;28;20265;-56
2021/12/31 03:33:13;;;;;;;48.60;24.63;;;3.10;99.90;;;;;;4207225;28;20322;-54
2021/12/31 03:35:15;;;;;;;43.70;22.23;;;3.10;99.90;;;;;;4206318;28;20256;-56
2021/12/31 03:37:16;;;;;;;45.40;23.33;;;3.10;99.90;;;;;;4207149;28;20306;-55
2021/12/31 03:39:17;;;;;;;53.80;22.90;;;3.10;99.90;;;;;;4206649;28;20272;-54
2021/12/31 03:41:18;;;;;;;42.63;23.43;;;3.00;99.90;;;;;;4206859;28;20330;-56
2021/12/31 03:43:19;;;;;;;48.03;22.30;;;3.00;99.90;;;;;;4207009;28;20252;-53
2021/12/31 03:45:20;;;;;;;45.40;22.03;;;3.00;99.90;;;;;;4206476;28;20296;-55
2021/12/31 03:47:21;;;;;;;44.87;22.87;;;3.00;99.90;;;;;;4207643;28;20252;-52
2021/12/31 03:49:23;;;;;;;43.53;20.87;;;3.00;99.90;;;;;;4206162;28;20772;-55
2021/12/31 03:51:24;;;;;;;43.53;21.77;;;3.00;99.90;;;;;;4207712;28;20668;-58
2021/12/31 03:53:25;;;;;;;46.67;23.87;;;3.00;99.90;;;;;;4206195;28;20318;-57
2021/12/31 03:55:26;;;;;;;47.40;24.33;;;3.00;99.90;;;;;;4207393;28;20346;-54
2021/12/31 03:57:27;;;;;;;47.03;24.53;;;3.00;99.90;;;;;;4206152;28;20310;-56
2021/12/31 03:59:28;;;;;;;49.80;24.03;;;3.00;99.90;;;;;;4206974;28;20272;-54
2021/12/31 04:01:29;;;;;;;53.90;25.70;;;3.00;99.90;;;;;;4206279;28;20314;-54
2021/12/31 04:03:31;;;;;;;52.10;25.90;;;3.00;99.90;;;;;;4207167;28;20260;-56
2021/12/31 04:05:32;;;;;;;50.37;26.07;;;3.00;99.90;;;;;;4205977;28;20296;-57
2021/12/31 04:07:34;;;;;;;62.80;28.93;;;3.00;99.90;;;;;;4207355;28;20805;-55
2021/12/31 04:09:35;;;;;;;53.97;27.70;;;3.00;99.90;;;;;;4204476;28;20261;-55
2021/12/31 04:11:36;;;;;;;54.57;26.77;;;3.00;99.90;;;;;;4206574;28;20280;-54
2021/12/31 04:13:37;;;;;;;57.00;26.87;;;3.10;99.90;;;;;;4206675;28;20257;-60
2021/12/31 04:15:38;;;;;;;59.00;26.23;;;3.10;99.90;;;;;;4206266;28;20341;-55
2021/12/31 04:17:40;;;;;;;55.23;25.23;;;3.10;99.90;;;;;;4206838;28;20321;-56
2021/12/31 04:19:42;;;;;;;57.67;26.77;;;3.10;99.90;;;;;;4206184;28;20761;-57
2021/12/31 04:21:44;;;;;;;56.73;27.67;;;3.10;99.90;;;;;;4207054;28;20676;-51
2021/12/31 04:26:06;;;;;;;53.37;26.83;;;3.10;99.90;;;;;;4210589;28;20385;-51
2021/12/31 04:28:08;;;;;;;52.80;26.10;;;3.10;99.90;;;;;;4209331;28;20697;-50
2021/12/31 04:30:10;;;;;;;53.97;25.40;;;3.10;99.90;;;;;;4210482;28;20317;-55
2021/12/31 04:32:11;;;;;;;55.43;26.90;;;3.10;99.90;;;;;;4209499;28;20334;-49
2021/12/31 04:34:13;;;;;;;54.17;26.40;;;3.10;99.90;;;;;;4210196;28;20314;-53
2021/12/31 04:36:14;;;;;;;61.80;27.13;;;3.10;99.90;;;;;;4209134;28;20598;-57
2021/12/31 04:38:15;;;;;;;52.93;25.70;;;3.20;99.90;;;;;;4210443;28;20260;-55
2021/12/31 04:40:16;;;;;;;53.60;25.63;;;3.10;99.90;;;;;;4209217;28;20285;-52
2021/12/31 04:42:17;;;;;;;55.60;25.07;;;3.20;99.90;;;;;;4210496;28;20318;-54
2021/12/31 04:44:18;;;;;;;63.43;25.90;;;3.10;99.90;;;;;;4209816;28;20299;-56
2021/12/31 04:46:20;;;;;;;56.53;24.43;;;3.10;99.90;;;;;;4209651;28;20369;-58
2021/12/31 04:48:21;;;;;;;61.40;25.03;;;3.10;99.90;;;;;;4209368;28;20257;-57
2021/12/31 04:50:22;;;;;;;54.13;22.97;;;3.10;99.90;;;;;;4208914;28;20256;-57
2021/12/31 04:52:23;;;;;;;58.00;25.00;;;3.10;99.90;;;;;;4209642;28;20273;-54
2021/12/31 04:54:25;;;;;;;69.03;25.83;;;3.10;99.90;;;;;;4208984;28;20277;-58
2021/12/31 04:56:26;;;;;;;69.47;25.80;;;3.00;99.90;;;;;;4209719;28;20330;-56
2021/12/31 04:58:27;;;;;;;51.37;23.87;;;3.00;99.90;;;;;;4208855;28;20353;-57
2021/12/31 05:00:28;;;;;;;60.53;25.53;;;3.00;99.90;;;;;;4209698;28;20341;-52
2021/12/31 05:02:30;;;;;;;59.33;26.63;;;3.10;99.90;;;;;;4209153;28;20378;-53
2021/12/31 05:04:31;;;;;;;53.43;24.60;;;3.10;99.90;;;;;;4210144;28;20329;-57
2021/12/31 05:06:32;;;;;;;56.10;24.73;;;3.10;99.90;;;;;;4208401;28;20849;-57
2021/12/31 05:08:33;;;;;;;51.73;24.30;;;3.10;99.90;;;;;;4209940;28;20349;-52
2021/12/31 05:10:35;;;;;;;56.83;24.67;;;3.10;99.90;;;;;;4208806;28;20322;-55
2021/12/31 05:12:38;;;;;;;58.33;25.07;;;3.10;99.90;;;;;;4209228;28;20265;-56
2021/12/31 05:14:39;;;;;;;58.03;26.33;;;3.10;99.90;;;;;;4208975;28;20643;-55
2021/12/31 05:16:40;;;;;;;58.17;26.77;;;3.10;99.90;;;;;;4209410;28;20265;-52
2021/12/31 05:18:41;;;;;;;63.90;26.70;;;3.10;99.90;;;;;;4209134;28;20232;-55
2021/12/31 05:20:43;;;;;;;62.37;27.10;;;3.10;99.90;;;;;;4208584;28;20610;-55
2021/12/31 05:22:44;;;;;;;61.90;27.23;;;3.10;99.90;;;;;;4209100;28;20751;-53
2021/12/31 05:24:45;;;;;;;58.80;29.20;;;3.10;99.90;;;;;;4208381;28;21088;-52
2021/12/31 05:26:46;;;;;;;65.43;27.80;;;3.10;99.90;;;;;;4209288;28;20317;-61
2021/12/31 05:28:47;;;;;;;62.70;27.63;;;3.20;99.90;;;;;;4208163;28;20334;-55
2021/12/31 05:30:48;;;;;;;59.40;26.87;;;3.20;99.90;;;;;;4209629;28;20260;-55
2021/12/31 05:32:49;;;;;;;61.10;26.87;;;3.20;99.90;;;;;;4208221;28;20716;-54
2021/12/31 05:34:51;;;;;;;57.70;26.07;;;3.20;99.90;;;;;;4208353;28;20680;-58
2021/12/31 05:36:52;;;;;;;55.17;25.33;;;3.20;99.90;;;;;;4208120;28;20318;-60
2021/12/31 05:38:53;;;;;;;61.80;27.93;;;3.20;99.90;;;;;;4209541;28;20265;-54
2021/12/31 05:40:54;;;;;;;61.03;26.20;;;3.30;99.90;;;;;;4207855;28;20953;-53
2021/12/31 05:42:55;;;;;;;51.83;25.10;;;3.30;99.90;;;;;;4209330;28;20264;-56
2021/12/31 05:44:56;;;;;;;57.03;26.30;;;3.30;99.90;;;;;;4208312;28;20261;-58
2021/12/31 05:46:57;;;;;;;56.37;24.87;;;3.30;99.90;;;;;;4208420;28;20631;-58
2021/12/31 05:48:58;;;;;;;57.43;24.93;;;3.30;99.90;;;;;;4208307;28;20314;-57
2021/12/31 05:51:00;;;;;;;51.97;24.27;;;3.40;99.90;;;;;;4207754;28;20280;-58
2021/12/31 05:53:01;;;;;;;52.97;24.20;;;3.40;99.90;;;;;;4207747;28;20298;-56
2021/12/31 05:55:05;;;;;;;52.10;24.37;;;3.40;99.90;;;;;;4207684;28;20265;-58
2021/12/31 05:57:06;;;;;;;47.17;22.10;;;3.40;99.90;;;;;;4208825;28;20672;-54
2021/12/31 05:59:07;;;;;;;46.00;22.73;;;3.50;99.90;;;;;;4206897;28;20276;-52
2021/12/31 06:01:08;;;;;;;47.67;23.83;;;3.50;99.90;;;;;;4208881;28;20265;-55
2021/12/31 06:03:09;;;;;;;48.37;22.70;;;3.50;99.90;;;;;;4207573;28;20277;-54
2021/12/31 06:05:10;;;;;;;43.43;21.77;;;3.50;99.90;;;;;;4208403;28;20806;-58
2021/12/31 06:07:11;;;;;;;51.13;23.03;;;3.50;99.90;;;;;;4207742;28;20269;-57
2021/12/31 06:09:13;;;;;;;46.27;21.63;;;3.50;99.90;;;;;;4208643;28;20629;-64
2021/12/31 06:11:14;;;;;;;45.97;23.10;;;3.50;99.90;;;;;;4207027;28;20511;-54
2021/12/31 06:13:15;;;;;;;43.87;21.47;;;3.60;99.90;;;;;;4207258;28;20294;-61
2021/12/31 06:15:18;;;;;;;41.40;19.87;;;3.60;99.90;;;;;;4208040;28;20334;-60
2021/12/31 06:17:25;;;;;;;39.60;20.33;;;3.60;99.90;;;;;;4208443;28;20272;-59
2021/12/31 06:19:26;;;;;;;41.40;19.93;;;3.60;99.90;;;;;;4207509;28;21072;-55
2021/12/31 06:21:27;;;;;;;40.53;20.73;;;3.50;99.90;;;;;;4208227;28;20264;-54
2021/12/31 06:23:29;;;;;;;36.73;19.33;;;3.50;99.90;;;;;;4207817;28;20265;-56
2021/12/31 06:25:30;;;;;;;37.97;19.33;;;3.50;99.90;;;;;;4207326;28;20288;-60
2021/12/31 06:27:31;;;;;;;42.37;20.57;;;3.60;99.90;;;;;;4208702;28;20357;-53
2021/12/31 06:29:32;;;;;;;42.33;19.43;;;3.50;99.90;;;;;;4206928;28;20830;-54
2021/12/31 06:31:33;;;;;;;36.90;18.43;;;3.60;99.90;;;;;;4208381;28;20273;-58
2021/12/31 06:33:34;;;;;;;40.23;20.83;;;3.60;99.90;;;;;;4206957;28;20260;-59
2021/12/31 06:35:35;;;;;;;40.23;21.37;;;3.60;99.90;;;;;;4207797;28;20741;-55
2021/12/31 06:37:37;;;;;;;43.60;20.47;;;3.60;99.90;;;;;;4207502;28;20318;-60
2021/12/31 06:39:40;;;;;;;41.70;20.07;;;3.60;99.90;;;;;;4208059;28;20277;-59
2021/12/31 06:41:43;;;;;;;38.17;20.27;;;3.60;99.90;;;;;;4207179;28;20353;-55
2021/12/31 06:43:44;;;;;;;39.90;20.70;;;3.60;99.90;;;;;;4208321;28;20327;-57
2021/12/31 06:45:45;;;;;;;37.77;19.40;;;3.60;99.90;;;;;;4206375;28;20312;-54
2021/12/31 06:47:46;;;;;;;35.57;19.33;;;3.70;99.90;;;;;;4206721;28;20802;-58
2021/12/31 06:49:47;;;;;;;36.10;18.43;;;3.70;99.90;;;;;;4207151;28;20299;-55
2021/12/31 06:51:49;;;;;;;41.00;21.47;;;3.70;99.90;;;;;;4207722;28;20268;-55
2021/12/31 06:53:50;;;;;;;43.50;21.53;;;3.70;99.90;;;;;;4206854;28;20326;-53
2021/12/31 06:55:51;;;;;;;41.47;19.30;;;3.70;99.90;;;;;;4206561;28;20679;-57
2021/12/31 06:57:52;;;;;;;37.77;19.40;;;3.70;99.90;;;;;;4207672;28;20261;-56
2021/12/31 06:59:54;;;;;;;42.60;22.23;;;3.70;99.90;;;;;;4206134;28;20318;-57
2021/12/31 07:01:55;;;;;;;45.77;21.97;;;3.70;99.90;;;;;;4207712;28;20265;-57
2021/12/31 07:03:56;;;;;;;40.20;21.57;;;3.70;99.90;;;;;;4206596;28;20760;-56
2021/12/31 07:05:57;;;;;;;42.97;21.93;;;3.70;99.90;;;;;;4207844;28;20346;-59
2021/12/31 07:07:59;;;;;;;39.63;21.80;;;3.70;99.90;;;;;;4206407;28;20322;-57
2021/12/31 07:10:00;;;;;;;43.57;21.07;;;3.70;99.90;;;;;;4207560;28;20334;-59
2021/12/31 07:12:01;;;;;;;41.67;20.27;;;3.70;99.90;;;;;;4206145;28;20317;-57
2021/12/31 07:14:02;;;;;;;37.97;20.27;;;3.70;99.90;;;;;;4207797;28;20330;-57
2021/12/31 07:16:04;;;;;;;40.23;21.00;;;3.70;99.90;;;;;;4206702;28;20303;-56
2021/12/31 07:18:05;;;;;;;36.13;18.83;;;3.70;99.90;;;;;;4207566;28;20735;-54
2021/12/31 07:20:06;;;;;;;39.87;20.97;;;3.70;99.90;;;;;;4206709;28;20237;-52
2021/12/31 07:22:08;;;;;;;37.43;18.90;;;3.70;99.90;;;;;;4206952;28;20260;-57
2021/12/31 07:24:09;;;;;;;34.97;18.77;;;3.70;99.90;;;;;;4206413;28;20284;-54
2021/12/31 07:26:10;;;;;;;33.13;18.33;;;3.70;99.90;;;;;;4206755;28;20308;-59
2021/12/31 07:28:13;;;;;;;36.77;18.77;;;3.60;99.90;;;;;;4207358;28;20729;-52
2021/12/31 07:30:16;;;;;;;38.77;20.13;;;3.60;99.90;;;;;;4206044;28;20352;-56
2021/12/31 07:32:17;;;;;;;34.67;18.60;;;3.60;99.90;;;;;;4207851;28;21079;-61
2021/12/31 07:34:18;;;;;;;31.40;17.17;;;3.60;99.90;;;;;;4206107;28;20335;-55
2021/12/31 07:36:19;;;;;;;34.73;16.90;;;3.60;99.90;;;;;;4207551;28;20690;-55
2021/12/31 07:38:24;;;;;;;39.30;21.00;;;3.60;99.90;;;;;;4205621;28;20276;-58
2021/12/31 07:40:41;;;;;;;38.67;20.63;;;3.60;99.90;;;;;;4207406;28;20832;-56
2021/12/31 07:42:42;;;;;;;44.20;20.83;;;3.60;99.90;;;;;;4206147;28;20306;-56
2021/12/31 07:44:43;;;;;;;38.67;20.53;;;3.70;99.90;;;;;;4207324;28;20801;-57
2021/12/31 07:46:46;;;;;;;38.83;18.50;;;3.60;99.90;;;;;;4206226;28;20323;-56
2021/12/31 07:48:48;;;;;;;38.50;18.80;;;3.70;99.90;;;;;;4207118;28;20334;-58
2021/12/31 07:50:50;;;;;;;37.37;19.33;;;3.70;99.90;;;;;;4205367;28;20322;-58
2021/12/31 07:52:52;;;;;;;31.13;17.67;;;3.70;99.90;;;;;;4207117;28;20322;-59
2021/12/31 07:54:53;;;;;;;31.80;16.83;;;3.70;99.90;;;;;;4205872;28;20876;-57
2021/12/31 07:56:54;;;;;;;33.37;18.37;;;3.70;99.90;;;;;;4206767;28;20256;-55
2021/12/31 07:58:55;;;;;;;33.37;16.37;;;3.70;99.90;;;;;;4205330;28;20650;-59
2021/12/31 08:00:56;;;;;;;33.97;17.43;;;3.60;99.90;;;;;;4205697;28;20333;-53
2021/12/31 08:02:58;;;;;;;33.73;17.03;;;3.70;99.90;;;;;;4206668;28;20253;-55
2021/12/31 08:04:59;;;;;;;33.07;16.37;;;3.60;99.90;;;;;;4204247;28;21028;-58
2021/12/31 08:07:00;;;;;;;29.13;16.60;;;3.70;99.90;;;;;;4206682;28;20298;-55
2021/12/31 08:09:01;;;;;;;31.20;15.87;;;3.60;99.90;;;;;;4205249;28;20326;-57
2021/12/31 08:11:02;;;;;;;28.73;15.70;;;3.60;99.90;;;;;;4206358;28;20326;-59
2021/12/31 08:13:04;;;;;;;34.30;16.17;;;3.60;99.90;;;;;;4205233;28;20793;-58
2021/12/31 08:15:07;;;;;;;32.13;18.23;;;3.70;99.90;;;;;;4207211;28;20342;-57
2021/12/31 08:17:08;;;;;;;33.47;17.03;;;3.70;99.90;;;;;;4205341;28;20269;-60
2021/12/31 08:19:09;;;;;;;35.17;17.27;;;3.70;99.90;;;;;;4206536;28;20757;-58
2021/12/31 08:21:10;;;;;;;35.87;17.37;;;3.70;99.90;;;;;;4205080;28;20322;-57
2021/12/31 08:23:14;;;;;;;36.40;18.33;;;3.70;99.90;;;;;;4207152;28;20268;-61
2021/12/31 08:25:16;;;;;;;33.63;17.70;;;3.70;99.90;;;;;;4205921;28;20624;-59
2021/12/31 08:27:17;;;;;;;35.07;17.37;;;3.80;99.90;;;;;;4204683;28;20315;-58
2021/12/31 08:29:18;;;;;;;34.30;17.70;;;3.80;99.90;;;;;;4205779;28;20268;-56
2021/12/31 08:31:19;;;;;;;37.00;17.87;;;3.80;99.90;;;;;;4205315;28;20253;-59
2021/12/31 08:33:20;;;;;;;32.03;16.67;;;3.80;99.90;;;;;;4205506;28;20289;-58
2021/12/31 08:35:22;;;;;;;34.80;16.60;;;3.80;99.90;;;;;;4205288;28;20277;-58
2021/12/31 08:37:23;;;;;;;33.07;16.83;;;3.80;99.90;;;;;;4205867;28;20277;-57
2021/12/31 08:39:24;;;;;;;34.33;18.50;;;3.80;99.90;;;;;;4203541;28;20293;-59
2021/12/31 08:41:25;;;;;;;30.07;16.30;;;3.80;99.90;;;;;;4206685;28;20277;-58
2021/12/31 08:43:27;;;;;;;28.50;15.03;;;3.80;99.90;;;;;;4205201;28;20334;-56
2021/12/31 08:45:29;;;;;;;30.40;15.37;;;3.80;99.90;;;;;;4206027;28;20733;-61
2021/12/31 08:47:31;;;;;;;32.83;17.53;;;3.80;99.90;;;;;;4205134;28;20293;-55
2021/12/31 08:49:32;;;;;;;31.77;16.17;;;3.90;99.90;;;;;;4206404;28;20290;-61
2021/12/31 08:51:34;;;;;;;33.50;16.43;;;3.80;99.90;;;;;;4203540;28;20940;-56
2021/12/31 08:53:35;;;;;;;33.43;17.30;;;3.90;99.90;;;;;;4206193;28;20276;-58
2021/12/31 08:55:36;;;;;;;33.07;17.47;;;3.90;99.90;;;;;;4202241;28;20272;-53
2021/12/31 08:57:37;;;;;;;30.10;15.63;;;3.80;99.90;;;;;;4173019;28;20293;-58
2021/12/31 08:59:38;;;;;;;30.43;16.43;;;3.90;99.90;;;;;;4172579;28;20243;-61
2021/12/31 09:01:39;;;;;;;30.03;16.50;;;3.90;99.90;;;;;;4173061;28;20273;-59
2021/12/31 09:03:40;;;;;;;29.90;16.43;;;3.90;99.90;;;;;;4172486;28;20266;-57
2021/12/31 09:05:41;;;;;;;30.70;15.70;;;3.90;99.90;;;;;;4172567;28;20748;-56
2021/12/31 09:07:43;;;;;;;27.97;14.43;;;3.90;99.90;;;;;;4173344;28;20273;-58
2021/12/31 09:09:44;;;;;;;28.83;15.07;;;3.90;99.90;;;;;;4173147;28;20740;-58
2021/12/31 09:11:45;;;;;;;29.80;15.40;;;3.90;99.90;;;;;;4176552;28;20340;-61
2021/12/31 09:13:47;;;;;;;27.10;13.93;;;3.90;99.90;;;;;;4174382;28;20382;-60
2021/12/31 09:15:48;;;;;;;28.13;15.00;;;3.90;99.90;;;;;;4176483;28;20318;-60
2021/12/31 09:17:49;;;;;;;25.83;13.37;;;3.90;99.90;;;;;;4175084;28;20266;-57
2021/12/31 09:19:51;;;;;;;28.80;14.63;;;4.00;99.90;;;;;;4175451;28;20355;-59
2021/12/31 09:21:55;;;;;;;26.90;14.10;;;4.00;99.90;;;;;;4174489;28;20320;-61
2021/12/31 09:23:56;;;;;;;29.13;15.80;;;4.00;99.90;;;;;;4175895;28;20689;-59
2021/12/31 09:25:58;;;;;;;28.43;14.83;;;3.90;99.90;;;;;;4175474;28;20321;-61
2021/12/31 09:27:59;;;;;;;26.70;13.10;;;4.00;99.90;;;;;;4176038;28;20308;-65
2021/12/31 09:30:00;;;;;;;25.03;14.20;;;4.10;99.90;;;;;;4173727;28;20336;-60
2021/12/31 09:32:01;;;;;;;28.60;15.10;;;4.10;99.90;;;;;;4175604;28;20333;-60
2021/12/31 09:34:02;;;;;;;30.23;16.03;;;4.10;99.90;;;;;;4174780;28;20266;-59
2021/12/31 09:36:04;;;;;;;27.57;13.83;;;4.10;99.90;;;;;;4174762;28;20255;-60
2021/12/31 09:38:08;;;;;;;28.23;13.30;;;4.10;99.90;;;;;;4175375;28;20320;-59
2021/12/31 09:40:11;;;;;;;18.47;10.83;;;4.10;99.90;;;;;;4175117;28;20331;-57
2021/12/31 09:42:13;;;;;;;23.10;12.37;;;4.10;99.90;;;;;;4175120;28;20320;-57
2021/12/31 09:44:15;;;;;;;24.27;13.33;;;4.10;99.90;;;;;;4175124;28;20352;-57
2021/12/31 09:46:18;;;;;;;20.97;12.30;;;4.10;99.90;;;;;;4176022;28;20297;-58
2021/12/31 09:48:21;;;;;;;22.10;12.47;;;4.10;99.90;;;;;;4173826;28;20266;-57
2021/12/31 09:50:22;;;;;;;20.40;11.73;;;4.10;99.90;;;;;;4175755;28;20275;-61
2021/12/31 09:52:30;;;;;;;20.53;11.53;;;4.10;99.90;;;;;;4196346;28;20841;-56
2021/12/31 09:54:31;;;;;;;21.77;11.80;;;4.10;99.90;;;;;;4208946;28;20604;-65
2021/12/31 09:56:39;;;;;;;21.03;11.60;;;4.10;99.90;;;;;;4207052;28;20268;-61
2021/12/31 09:58:40;;;;;;;21.20;11.13;;;4.10;99.90;;;;;;4208674;28;20333;-59
2021/12/31 10:00:44;;;;;;;22.47;11.23;;;4.10;99.90;;;;;;4207170;28;21108;-57
2021/12/31 10:02:47;;;;;;;21.93;11.50;;;4.10;99.90;;;;;;4208312;28;20265;-56
2021/12/31 10:04:58;;;;;;;16.33;9.77;;;4.10;99.90;;;;;;4207324;28;20277;-57
2021/12/31 10:07:09;;;;;;;20.47;11.67;;;4.00;99.90;;;;;;4208640;28;20357;-56
2021/12/31 10:09:10;;;;;;;21.13;12.23;;;4.10;99.90;;;;;;4207577;28;20715;-57
2021/12/31 10:11:17;;;;;;;18.20;10.73;;;4.10;99.90;;;;;;4208270;28;21092;-57
2021/12/31 10:13:23;;;;;;;16.67;10.40;;;4.20;99.90;;;;;;4207724;28;20318;-57
2021/12/31 10:15:25;;;;;;;17.37;9.20;;;4.20;99.90;;;;;;4208366;28;20272;-57
2021/12/31 10:17:34;;;;;;;21.07;11.90;;;4.20;99.90;;;;;;4207608;28;20804;-58
2021/12/31 10:19:43;;;;;;;20.80;12.30;;;4.20;99.90;;;;;;4207481;28;20338;-58
2021/12/31 10:21:53;;;;;;;21.73;12.80;;;4.20;99.90;;;;;;4207007;28;20343;-55
2021/12/31 10:23:55;;;;;;;19.58;11.60;;;4.20;99.90;;;;;;4207588;28;20276;-54
2021/12/31 10:26:11;;;;;;;24.93;14.27;;;4.30;99.90;;;;;;4207317;28;20048;-59
2021/12/31 10:28:15;;;;;;;23.10;12.83;;;4.40;99.90;;;;;;4207985;28;20683;-58
2021/12/31 10:30:22;;;;;;;22.73;12.50;;;4.30;99.90;;;;;;4206939;28;20317;-61
2021/12/31 10:32:27;;;;;;;21.30;12.63;;;4.30;99.90;;;;;;4207338;28;20256;-55